createdAt,value
2022-10-03T05:54:43.125Z,85.24
2022-10-03T05:55:26.681Z,85.86
2022-10-03T05:56:26.700Z,85.86
2022-10-03T05:57:26.656Z,85.75
2022-10-03T05:58:26.642Z,85.82
2022-10-03T05:59:26.629Z,85.71
2022-10-03T06:00:26.636Z,85.30
2022-10-03T06:01:26.609Z,84.69
2022-10-03T06:02:26.793Z,85.21
2022-10-03T06:03:27.498Z,85.41
2022-10-03T06:04:26.592Z,85.27
2022-10-03T06:05:26.565Z,85.21
2022-10-03T06:06:26.577Z,85.06
2022-10-03T06:07:26.540Z,85.57
2022-10-03T06:08:26.525Z,85.33
2022-10-03T06:09:26.515Z,84.92
2022-10-03T06:10:27.467Z,84.25
2022-10-03T06:11:26.493Z,85.13
2022-10-03T06:12:26.541Z,85.02
2022-10-03T06:13:26.473Z,84.31
2022-10-03T06:14:26.462Z,85.02
2022-10-03T06:15:26.447Z,84.47
2022-10-03T06:16:26.547Z,85.08
2022-10-03T06:17:26.431Z,85.08
2022-10-03T06:18:26.592Z,84.98
2022-10-03T06:19:26.404Z,84.98
2022-10-03T06:20:27.075Z,84.88
2022-10-03T06:21:26.400Z,84.27
2022-10-03T06:22:26.371Z,85.08
2022-10-03T06:23:26.359Z,84.98
2022-10-03T06:24:26.525Z,84.98
2022-10-03T06:25:26.343Z,85.14
2022-10-03T06:26:26.428Z,85.19
2022-10-03T06:27:26.310Z,85.14
2022-10-03T06:28:26.446Z,84.84
2022-10-03T06:29:26.300Z,84.74
2022-10-03T06:30:26.556Z,85.35
2022-10-03T06:31:31.165Z,85.25
2022-10-03T06:32:27.252Z,85.25
2022-10-03T06:33:26.245Z,84.94
2022-10-03T06:34:26.314Z,84.84
2022-10-03T06:35:26.236Z,84.19
2022-10-03T06:36:26.457Z,84.90
2022-10-03T06:37:26.199Z,84.76
2022-10-03T06:38:26.189Z,84.66
2022-10-03T06:39:26.942Z,84.66
2022-10-03T06:40:26.221Z,84.72
2022-10-03T06:41:26.946Z,84.52
2022-10-03T06:42:26.599Z,84.62
2022-10-03T06:43:26.130Z,84.62
2022-10-03T06:44:26.113Z,84.92
2022-10-03T06:45:30.661Z,84.82
2022-10-03T06:46:27.217Z,84.78
2022-10-03T06:47:26.086Z,84.78
2022-10-03T06:48:26.130Z,84.62
2022-10-03T06:49:26.124Z,84.62
2022-10-03T06:50:26.150Z,84.58
2022-10-03T06:51:30.383Z,84.07
2022-10-03T06:52:26.952Z,84.17
2022-10-03T06:53:26.008Z,84.58
2022-10-03T06:54:26.028Z,84.88
2022-10-03T06:55:26.068Z,84.64
2022-10-03T06:56:25.980Z,84.54
2022-10-03T06:57:26.038Z,84.23
2022-10-03T06:58:25.979Z,84.64
2022-10-03T06:59:32.444Z,84.64
2022-10-03T07:00:25.982Z,84.20
2022-10-03T07:01:26.493Z,84.34
2022-10-03T07:02:25.994Z,84.50
2022-10-03T07:03:25.903Z,84.70
2022-10-03T07:04:25.895Z,84.30
2022-10-03T07:05:25.882Z,84.20
2022-10-03T07:06:25.981Z,84.60
2022-10-03T07:07:25.853Z,84.50
2022-10-03T07:08:26.497Z,84.46
2022-10-03T07:09:25.887Z,84.36
2022-10-03T07:10:25.823Z,84.26
2022-10-03T07:11:25.836Z,84.70
2022-10-03T07:12:25.836Z,84.46
2022-10-03T07:13:26.459Z,84.26
2022-10-03T07:14:25.825Z,84.56
2022-10-03T07:15:50.133Z,84.46
2022-10-03T07:16:27.651Z,84.66
2022-10-03T07:17:25.788Z,84.12
2022-10-03T07:18:25.751Z,84.12
2022-10-03T07:19:25.721Z,84.12
2022-10-03T07:20:25.714Z,84.22
2022-10-03T07:21:26.505Z,83.71
2022-10-03T07:22:25.711Z,84.12
2022-10-03T07:23:25.670Z,84.42
2022-10-03T07:24:25.673Z,84.42
2022-10-03T07:25:25.672Z,84.52
2022-10-03T07:26:25.648Z,84.52
2022-10-03T07:27:26.478Z,84.32
2022-10-03T07:28:25.673Z,84.32
2022-10-03T07:29:25.600Z,84.52
2022-10-03T07:30:25.656Z,84.52
2022-10-03T07:31:25.644Z,84.38
2022-10-03T07:32:25.603Z,84.28
2022-10-03T07:33:25.563Z,84.58
2022-10-03T07:34:25.570Z,84.42
2022-10-03T07:35:25.532Z,84.32
2022-10-03T07:36:25.649Z,83.91
2022-10-03T07:37:25.508Z,84.12
2022-10-03T07:38:25.511Z,83.91
2022-10-03T07:39:25.517Z,84.12
2022-10-03T07:40:26.465Z,84.83
2022-10-03T07:41:25.470Z,84.58
2022-10-03T07:42:25.481Z,84.48
2022-10-03T07:43:25.463Z,83.73
2022-10-03T07:44:25.435Z,83.63
2022-10-03T07:45:25.426Z,83.94
2022-10-03T07:46:25.546Z,84.34
2022-10-03T07:47:25.400Z,84.44
2022-10-03T07:48:25.452Z,84.14
2022-10-03T07:49:25.391Z,84.64
2022-10-03T07:50:25.368Z,84.64
2022-10-03T07:51:25.353Z,84.75
2022-10-03T07:52:25.346Z,84.44
2022-10-03T07:53:25.407Z,84.44
2022-10-03T07:54:25.361Z,84.20
2022-10-03T07:55:25.308Z,84.20
2022-10-03T07:56:25.320Z,84.61
2022-10-03T07:57:26.279Z,84.20
2022-10-03T07:58:25.271Z,83.83
2022-10-03T07:59:25.267Z,84.04
2022-10-03T08:00:25.294Z,84.04
2022-10-03T08:01:25.243Z,84.55
2022-10-03T08:02:25.311Z,84.64
2022-10-03T08:03:25.293Z,84.55
2022-10-03T08:04:25.204Z,83.83
2022-10-03T08:05:25.201Z,84.10
2022-10-03T08:06:25.208Z,84.61
2022-10-03T08:07:25.176Z,84.20
2022-10-03T08:08:25.163Z,84.10
2022-10-03T08:09:25.146Z,83.80
2022-10-03T08:10:25.140Z,83.86
2022-10-03T08:11:25.147Z,83.65
2022-10-03T08:12:25.143Z,83.76
2022-10-03T08:13:25.102Z,83.65
2022-10-03T08:14:25.104Z,83.76
2022-10-03T08:15:25.085Z,83.86
2022-10-03T08:16:25.184Z,83.96
2022-10-03T08:17:25.062Z,84.27
2022-10-03T08:18:25.102Z,84.27
2022-10-03T08:19:25.050Z,84.30
2022-10-03T08:20:25.051Z,84.10
2022-10-03T08:21:25.012Z,84.50
2022-10-03T08:22:24.999Z,84.61
2022-10-03T08:23:25.030Z,84.20
2022-10-03T08:24:25.026Z,83.76
2022-10-03T08:25:24.969Z,83.65
2022-10-03T08:26:24.964Z,83.25
2022-10-03T08:27:24.945Z,83.25
2022-10-03T08:28:25.027Z,83.15
2022-10-03T08:29:24.923Z,83.01
2022-10-03T08:30:24.923Z,83.15
2022-10-03T08:31:25.064Z,83.86
2022-10-03T08:32:24.893Z,83.86
2022-10-03T08:33:24.895Z,83.55
2022-10-03T08:34:24.888Z,83.25
2022-10-03T08:35:24.886Z,83.76
2022-10-03T08:36:24.885Z,83.96
2022-10-03T08:37:24.850Z,84.06
2022-10-03T08:38:27.936Z,83.86
2022-10-03T08:39:24.814Z,83.55
2022-10-03T08:40:24.834Z,83.86
2022-10-03T08:41:24.795Z,84.47
2022-10-03T08:42:24.797Z,83.96
2022-10-03T08:43:24.769Z,84.27
2022-10-03T08:44:29.582Z,84.16
2022-10-03T08:45:25.744Z,84.30
2022-10-03T08:46:24.798Z,84.36
2022-10-03T08:47:24.720Z,84.50
2022-10-03T08:48:24.726Z,84.61
2022-10-03T08:49:24.697Z,84.27
2022-10-03T08:50:24.706Z,84.27
2022-10-03T08:51:24.689Z,84.10
2022-10-03T08:52:24.662Z,83.86
2022-10-03T08:53:24.651Z,84.20
2022-10-03T08:54:24.850Z,84.00
2022-10-03T08:55:24.633Z,84.36
2022-10-03T08:56:24.658Z,84.10
2022-10-03T08:57:24.607Z,84.50
2022-10-03T08:58:24.589Z,84.30
2022-10-03T08:59:24.581Z,84.56
2022-10-03T09:00:24.612Z,84.30
2022-10-03T09:01:24.591Z,84.30
2022-10-03T09:02:24.688Z,84.50
2022-10-03T09:03:43.105Z,84.30
2022-10-03T09:04:25.518Z,84.41
2022-10-03T09:05:24.533Z,84.41
2022-10-03T09:06:24.662Z,84.61
2022-10-03T09:07:24.894Z,84.50
2022-10-03T09:08:24.512Z,84.10
2022-10-03T09:09:24.471Z,84.61
2022-10-03T09:10:24.452Z,84.41
2022-10-03T09:11:24.451Z,84.27
2022-10-03T09:12:24.452Z,84.27
2022-10-03T09:13:24.430Z,83.65
2022-10-03T09:14:24.486Z,84.06
2022-10-03T09:15:24.402Z,84.47
2022-10-03T09:16:24.450Z,84.16
2022-10-03T09:17:24.371Z,84.12
2022-10-03T09:18:24.437Z,84.02
2022-10-03T09:19:24.994Z,84.12
2022-10-03T09:20:24.370Z,84.22
2022-10-03T09:21:24.331Z,84.22
2022-10-03T09:22:24.348Z,83.88
2022-10-03T09:23:24.311Z,83.98
2022-10-03T09:24:24.473Z,83.88
2022-10-03T09:25:25.289Z,83.68
2022-10-03T09:26:24.279Z,83.64
2022-10-03T09:27:24.276Z,83.94
2022-10-03T09:28:25.679Z,83.44
2022-10-03T09:29:24.238Z,83.84
2022-10-03T09:30:24.299Z,83.74
2022-10-03T09:31:24.268Z,83.50
2022-10-03T09:32:24.217Z,83.09
2022-10-03T09:33:24.196Z,82.99
2022-10-03T09:34:24.186Z,82.65
2022-10-03T09:35:24.173Z,83.15
2022-10-03T09:36:24.216Z,83.22
2022-10-03T09:37:24.179Z,83.01
2022-10-03T09:38:25.019Z,83.05
2022-10-03T09:39:24.138Z,82.91
2022-10-03T09:40:24.121Z,83.12
2022-10-03T09:41:24.106Z,83.22
2022-10-03T09:42:24.111Z,83.32
2022-10-03T09:43:24.083Z,83.32
2022-10-03T09:44:24.072Z,83.22
2022-10-03T09:45:24.058Z,82.71
2022-10-03T09:46:24.209Z,83.26
2022-10-03T09:47:24.047Z,83.22
2022-10-03T09:48:24.077Z,83.56
2022-10-03T09:49:24.016Z,83.46
2022-10-03T09:50:24.050Z,83.42
2022-10-03T09:51:24.043Z,83.22
2022-10-03T09:52:23.982Z,83.15
2022-10-03T09:53:23.983Z,83.26
2022-10-03T09:54:24.041Z,83.46
2022-10-03T09:55:23.948Z,82.75
2022-10-03T09:56:23.968Z,83.15
2022-10-03T09:57:23.923Z,83.40
2022-10-03T09:58:23.914Z,83.40
2022-10-03T09:59:24.507Z,83.09
2022-10-03T10:00:23.997Z,82.69
2022-10-03T10:01:23.980Z,82.99
2022-10-03T10:02:23.864Z,83.29
2022-10-03T10:03:23.858Z,82.32
2022-10-03T10:04:37.809Z,81.71
2022-10-03T10:05:24.862Z,81.92
2022-10-03T10:06:25.024Z,82.26
2022-10-03T10:07:32.174Z,82.46
2022-10-03T10:08:27.521Z,82.70
2022-10-03T10:09:23.790Z,83.61
2022-10-03T10:10:23.799Z,83.31
2022-10-03T10:11:23.819Z,83.15
2022-10-03T10:12:23.772Z,83.15
2022-10-03T10:13:23.742Z,83.25
2022-10-03T10:14:23.735Z,83.55
2022-10-03T10:15:23.718Z,83.45
2022-10-03T10:16:23.767Z,83.15
2022-10-03T10:17:23.730Z,83.25
2022-10-03T10:18:23.683Z,83.55
2022-10-03T10:19:23.687Z,83.76
2022-10-03T10:20:23.661Z,83.55
2022-10-03T10:21:23.687Z,84.06
2022-10-03T10:22:23.639Z,83.76
2022-10-03T10:23:23.669Z,83.65
2022-10-03T10:24:23.618Z,83.25
2022-10-03T10:25:23.608Z,83.45
2022-10-03T10:26:28.667Z,83.25
2022-10-03T10:27:24.581Z,83.25
2022-10-03T10:28:23.599Z,83.76
2022-10-03T10:29:23.586Z,83.41
2022-10-03T10:30:23.549Z,83.21
2022-10-03T10:31:23.599Z,83.17
2022-10-03T10:32:23.532Z,83.03
2022-10-03T10:33:23.514Z,83.13
2022-10-03T10:34:23.499Z,83.44
2022-10-03T10:35:23.545Z,82.93
2022-10-03T10:36:23.474Z,82.99
2022-10-03T10:37:23.491Z,82.69
2022-10-03T10:38:23.456Z,82.75
2022-10-03T10:39:23.480Z,83.26
2022-10-03T10:40:23.433Z,83.15
2022-10-03T10:41:24.023Z,83.05
2022-10-03T10:42:23.999Z,82.75
2022-10-03T10:43:23.407Z,83.05
2022-10-03T10:44:23.392Z,83.56
2022-10-03T10:45:23.376Z,83.26
2022-10-03T10:46:23.474Z,83.12
2022-10-03T10:47:23.391Z,82.85
2022-10-03T10:48:23.591Z,82.91
2022-10-03T10:49:23.334Z,82.75
2022-10-03T10:50:23.316Z,82.85
2022-10-03T10:51:23.321Z,82.91
2022-10-03T10:52:23.308Z,82.21
2022-10-03T10:53:24.019Z,82.21
2022-10-03T10:54:23.274Z,81.74
2022-10-03T10:55:23.296Z,82.01
2022-10-03T10:56:23.254Z,82.01
2022-10-03T10:57:23.245Z,82.01
2022-10-03T10:58:23.252Z,82.21
2022-10-03T10:59:23.293Z,82.91
2022-10-03T11:00:23.232Z,82.87
2022-10-03T11:01:23.195Z,83.18
2022-10-03T11:02:23.220Z,83.28
2022-10-03T11:03:23.170Z,82.98
2022-10-03T11:04:23.201Z,83.18
2022-10-03T11:05:23.176Z,83.07
2022-10-03T11:06:23.139Z,83.07
2022-10-03T11:07:23.126Z,83.28
2022-10-03T11:08:23.114Z,83.07
2022-10-03T11:09:23.108Z,83.58
2022-10-03T11:10:23.178Z,83.28
2022-10-03T11:11:23.166Z,83.42
2022-10-03T11:12:23.065Z,83.62
2022-10-03T11:13:23.105Z,83.42
2022-10-03T11:14:23.069Z,83.52
2022-10-03T11:15:23.057Z,83.42
2022-10-03T11:16:23.104Z,83.22
2022-10-03T11:17:23.039Z,83.52
2022-10-03T11:18:23.007Z,83.32
2022-10-03T11:19:23.013Z,82.61
2022-10-03T11:20:22.976Z,83.22
2022-10-03T11:21:23.017Z,82.67
2022-10-03T11:22:22.951Z,82.13
2022-10-03T11:23:22.978Z,82.47
2022-10-03T11:24:22.974Z,82.03
2022-10-03T11:25:22.917Z,82.17
2022-10-03T11:26:22.911Z,82.03
2022-10-03T11:27:23.041Z,81.62
2022-10-03T11:28:26.901Z,81.93
2022-10-03T11:29:22.909Z,81.89
2022-10-03T11:30:22.885Z,81.82
2022-10-03T11:31:22.939Z,81.79
2022-10-03T11:32:23.535Z,81.79
2022-10-03T11:33:22.838Z,81.52
2022-10-03T11:34:22.836Z,82.13
2022-10-03T11:35:22.854Z,82.03
2022-10-03T11:36:22.797Z,82.23
2022-10-03T11:37:22.810Z,82.37
2022-10-03T11:38:22.795Z,82.87
2022-10-03T11:39:22.760Z,82.98
2022-10-03T11:40:22.755Z,82.78
2022-10-03T11:41:22.812Z,82.67
2022-10-03T11:42:22.732Z,83.07
2022-10-03T11:43:22.717Z,83.12
2022-10-03T11:44:22.707Z,83.22
2022-10-03T11:45:22.716Z,83.07
2022-10-03T11:46:22.702Z,83.12
2022-10-03T11:47:22.699Z,83.01
2022-10-03T11:48:22.657Z,83.12
2022-10-03T11:49:22.662Z,82.91
2022-10-03T11:50:22.640Z,83.46
2022-10-03T11:51:22.661Z,83.32
2022-10-03T11:52:22.617Z,83.42
2022-10-03T11:53:22.641Z,83.22
2022-10-03T11:54:32.350Z,83.01
2022-10-03T11:55:23.599Z,82.81
2022-10-03T11:56:22.630Z,83.01
2022-10-03T11:57:22.685Z,82.98
2022-10-03T11:58:22.542Z,82.81
2022-10-03T11:59:26.641Z,82.27
2022-10-03T12:00:22.517Z,82.17
2022-10-03T12:01:22.516Z,82.27
2022-10-03T12:02:23.108Z,82.47
2022-10-03T12:03:22.567Z,82.27
2022-10-03T12:04:22.483Z,82.57
2022-10-03T12:05:22.504Z,82.37
2022-10-03T12:06:22.457Z,82.17
2022-10-03T12:07:22.438Z,82.27
2022-10-03T12:08:22.495Z,82.27
2022-10-03T12:09:22.425Z,81.96
2022-10-03T12:10:22.507Z,82.17
2022-10-03T12:11:22.444Z,81.82
2022-10-03T12:12:23.043Z,81.96
2022-10-03T12:13:22.375Z,82.07
2022-10-03T12:14:22.377Z,82.17
2022-10-03T12:15:23.043Z,82.47
2022-10-03T12:16:22.402Z,82.17
2022-10-03T12:17:22.339Z,82.47
2022-10-03T12:18:22.346Z,82.81
2022-10-03T12:19:22.327Z,83.22
2022-10-03T12:20:22.292Z,82.91
2022-10-03T12:21:22.343Z,82.91
2022-10-03T12:22:22.268Z,83.01
2022-10-03T12:23:22.362Z,82.95
2022-10-03T12:24:22.254Z,82.95
2022-10-03T12:25:22.263Z,82.95
2022-10-03T12:26:22.227Z,82.89
2022-10-03T12:27:22.221Z,82.89
2022-10-03T12:28:22.245Z,83.09
2022-10-03T12:29:22.206Z,83.03
2022-10-03T12:30:22.191Z,83.13
2022-10-03T12:31:22.241Z,83.13
2022-10-03T12:32:22.158Z,82.83
2022-10-03T12:33:22.165Z,82.76
2022-10-03T12:34:22.178Z,82.97
2022-10-03T12:35:22.135Z,82.97
2022-10-03T12:36:22.111Z,82.81
2022-10-03T12:37:22.105Z,83.21
2022-10-03T12:38:22.088Z,83.35
2022-10-03T12:39:22.072Z,83.55
2022-10-03T12:40:22.066Z,83.15
2022-10-03T12:41:22.083Z,83.25
2022-10-03T12:42:22.060Z,83.69
2022-10-03T12:43:22.043Z,83.90
2022-10-03T12:44:22.024Z,83.90
2022-10-03T12:45:22.009Z,83.90
2022-10-03T12:46:22.042Z,83.59
2022-10-03T12:47:37.586Z,84.00
2022-10-03T12:48:22.991Z,84.14
2022-10-03T12:49:21.957Z,83.63
2022-10-03T12:50:22.004Z,84.04
2022-10-03T12:51:21.967Z,84.18
2022-10-03T12:52:21.957Z,84.24
2022-10-03T12:53:21.950Z,83.87
2022-10-03T12:54:24.768Z,84.08
2022-10-03T12:55:21.898Z,84.08
2022-10-03T12:56:21.889Z,84.18
2022-10-03T12:57:21.891Z,84.12
2022-10-03T12:58:21.869Z,84.22
2022-10-03T12:59:21.905Z,84.63
2022-10-03T13:00:21.861Z,84.32
2022-10-03T13:01:21.870Z,84.22
2022-10-03T13:02:21.881Z,84.22
2022-10-03T13:03:21.808Z,84.72
2022-10-03T13:04:21.817Z,84.63
2022-10-03T13:05:21.840Z,84.52
2022-10-03T13:06:33.915Z,84.42
2022-10-03T13:07:22.757Z,84.63
2022-10-03T13:08:21.746Z,84.56
2022-10-03T13:09:21.740Z,84.56
2022-10-03T13:10:21.724Z,84.72
2022-10-03T13:11:21.747Z,84.52
2022-10-03T13:12:25.541Z,84.87
2022-10-03T13:13:22.691Z,84.56
2022-10-03T13:14:21.680Z,84.22
2022-10-03T13:15:21.688Z,84.16
2022-10-03T13:16:21.706Z,84.52
2022-10-03T13:17:21.667Z,84.36
2022-10-03T13:18:21.636Z,84.52
2022-10-03T13:19:21.620Z,84.52
2022-10-03T13:20:21.618Z,84.42
2022-10-03T13:21:44.506Z,84.32
2022-10-03T13:22:22.666Z,84.12
2022-10-03T13:23:21.572Z,84.01
2022-10-03T13:24:21.565Z,83.91
2022-10-03T13:25:21.556Z,83.91
2022-10-03T13:26:21.536Z,84.12
2022-10-03T13:27:21.534Z,83.71
2022-10-03T13:28:21.646Z,84.12
2022-10-03T13:29:21.526Z,83.91
2022-10-03T13:30:21.514Z,83.77
2022-10-03T13:31:21.533Z,83.06
2022-10-03T13:32:21.496Z,83.37
2022-10-03T13:33:21.458Z,83.77
2022-10-03T13:34:21.465Z,83.77
2022-10-03T13:35:21.444Z,83.67
2022-10-03T13:36:21.422Z,83.77
2022-10-03T13:37:21.421Z,83.53
2022-10-03T13:38:22.094Z,83.73
2022-10-03T13:39:21.407Z,83.77
2022-10-03T13:40:21.417Z,83.67
2022-10-03T13:41:21.442Z,83.37
2022-10-03T13:42:21.367Z,83.17
2022-10-03T13:43:21.345Z,83.98
2022-10-03T13:44:21.333Z,83.43
2022-10-03T13:45:21.331Z,83.67
2022-10-03T13:46:21.403Z,83.77
2022-10-03T13:47:21.295Z,83.77
2022-10-03T13:48:21.406Z,83.67
2022-10-03T13:49:21.307Z,83.37
2022-10-03T13:50:21.289Z,83.33
2022-10-03T13:51:21.261Z,83.37
2022-10-03T13:52:21.256Z,83.33
2022-10-03T13:53:21.232Z,83.77
2022-10-03T13:54:21.249Z,83.77
2022-10-03T13:55:21.215Z,83.87
2022-10-03T13:56:21.202Z,83.77
2022-10-03T13:57:21.188Z,83.87
2022-10-03T13:58:21.249Z,83.77
2022-10-03T13:59:21.166Z,83.91
2022-10-03T14:00:21.156Z,83.67
2022-10-03T14:01:21.206Z,83.81
2022-10-03T14:02:21.171Z,83.87
2022-10-03T14:03:21.133Z,83.91
2022-10-03T14:04:21.126Z,83.87
2022-10-03T14:05:21.113Z,83.77
2022-10-03T14:06:21.092Z,83.06
2022-10-03T14:07:21.128Z,83.57
2022-10-03T14:08:21.067Z,83.63
2022-10-03T14:09:21.058Z,83.17
2022-10-03T14:10:21.083Z,83.23
2022-10-03T14:11:21.033Z,83.63
2022-10-03T14:12:33.183Z,82.72
2022-10-03T14:13:22.006Z,82.78
2022-10-03T14:14:20.991Z,82.58
2022-10-03T14:15:20.988Z,82.89
2022-10-03T14:16:21.055Z,82.48
2022-10-03T14:17:20.963Z,82.44
2022-10-03T14:18:20.966Z,82.34
2022-10-03T14:19:20.941Z,82.24
2022-10-03T14:20:20.929Z,82.44
2022-10-03T14:21:20.909Z,82.30
2022-10-03T14:22:21.100Z,82.34
2022-10-03T14:23:20.920Z,82.44
2022-10-03T14:24:20.895Z,82.54
2022-10-03T14:25:20.872Z,82.84
2022-10-03T14:26:20.989Z,82.75
2022-10-03T14:27:20.869Z,82.64
2022-10-03T14:28:20.935Z,82.75
2022-10-03T14:29:20.849Z,83.45
2022-10-03T14:30:20.815Z,83.15
2022-10-03T14:31:20.860Z,83.25
2022-10-03T14:32:45.771Z,83.15
2022-10-03T14:33:21.792Z,83.45
2022-10-03T14:34:20.772Z,83.35
2022-10-03T14:35:20.752Z,83.45
2022-10-03T14:36:20.858Z,83.25
2022-10-03T14:37:20.752Z,83.15
2022-10-03T14:38:20.722Z,83.39
2022-10-03T14:39:20.745Z,83.39
2022-10-03T14:40:20.698Z,83.09
2022-10-03T14:41:20.685Z,83.18
2022-10-03T14:42:20.720Z,83.39
2022-10-03T14:43:20.658Z,83.39
2022-10-03T14:44:20.653Z,83.29
2022-10-03T14:45:20.672Z,83.59
2022-10-03T14:46:20.721Z,83.49
2022-10-03T14:47:20.621Z,83.29
2022-10-03T14:48:20.603Z,83.59
2022-10-03T14:49:48.525Z,83.18
2022-10-03T14:50:21.595Z,83.09
2022-10-03T14:51:20.565Z,83.29
2022-10-03T14:52:20.569Z,83.03
2022-10-03T14:53:20.549Z,83.23
2022-10-03T14:54:20.535Z,83.03
2022-10-03T14:55:20.526Z,83.23
2022-10-03T14:56:20.525Z,83.03
2022-10-03T14:57:20.566Z,83.37
2022-10-03T14:58:20.607Z,83.67
2022-10-03T14:59:20.490Z,83.26
2022-10-03T15:00:20.483Z,83.23
2022-10-03T15:01:20.457Z,83.47
2022-10-03T15:02:20.687Z,83.67
2022-10-03T15:03:20.549Z,83.57
2022-10-03T15:04:20.419Z,83.47
2022-10-03T15:05:20.411Z,83.57
2022-10-03T15:06:20.411Z,83.77
2022-10-03T15:07:20.389Z,83.67
2022-10-03T15:08:20.435Z,83.67
2022-10-03T15:09:20.367Z,83.61
2022-10-03T15:10:20.355Z,83.67
2022-10-03T15:11:20.345Z,83.81
2022-10-03T15:12:20.333Z,83.57
2022-10-03T15:13:20.331Z,83.57
2022-10-03T15:14:20.424Z,83.57
2022-10-03T15:15:20.291Z,83.26
2022-10-03T15:16:20.373Z,83.37
2022-10-03T15:17:20.276Z,83.67
2022-10-03T15:18:20.264Z,83.37
2022-10-03T15:19:20.252Z,83.37
2022-10-03T15:20:20.253Z,83.26
2022-10-03T15:21:28.142Z,83.10
2022-10-03T15:22:28.176Z,83.40
2022-10-03T15:23:27.730Z,83.20
2022-10-03T15:24:24.930Z,83.10
2022-10-03T15:25:21.254Z,83.31
2022-10-03T15:26:20.172Z,83.34
2022-10-03T15:27:20.169Z,83.65
2022-10-03T15:28:20.278Z,83.85
2022-10-03T15:29:20.146Z,83.61
2022-10-03T15:30:20.207Z,83.61
2022-10-03T15:31:20.194Z,83.54
2022-10-03T15:32:20.098Z,83.75
2022-10-03T15:33:20.113Z,83.54
2022-10-03T15:34:20.083Z,83.45
2022-10-03T15:35:20.066Z,83.54
2022-10-03T15:36:20.070Z,83.65
2022-10-03T15:37:20.076Z,83.85
2022-10-03T15:38:20.040Z,83.95
2022-10-03T15:39:20.050Z,83.75
2022-10-03T15:40:20.008Z,83.75
2022-10-03T15:41:20.006Z,83.85
2022-10-03T15:42:20.014Z,83.75
2022-10-03T15:43:20.052Z,83.65
2022-10-03T15:44:19.974Z,83.75
2022-10-03T15:45:19.952Z,83.75
2022-10-03T15:46:20.084Z,83.75
2022-10-03T15:47:19.930Z,83.65
2022-10-03T15:48:19.926Z,83.54
2022-10-03T15:49:19.932Z,83.54
2022-10-03T15:50:19.914Z,83.54
2022-10-03T15:51:19.889Z,83.45
2022-10-03T15:52:19.872Z,83.45
2022-10-03T15:53:35.457Z,83.65
2022-10-03T15:54:20.882Z,83.65
2022-10-03T15:55:19.842Z,83.75
2022-10-03T15:56:19.830Z,83.65
2022-10-03T15:57:19.823Z,83.54
2022-10-03T15:58:19.805Z,83.24
2022-10-03T15:59:19.793Z,83.24
2022-10-03T16:00:19.816Z,83.34
2022-10-03T16:01:19.850Z,83.24
2022-10-03T16:02:19.861Z,83.14
2022-10-03T16:03:19.817Z,83.34
2022-10-03T16:04:19.737Z,83.34
2022-10-03T16:05:19.725Z,83.45
2022-10-03T16:06:19.819Z,83.75
2022-10-03T16:07:19.709Z,83.65
2022-10-03T16:08:19.718Z,83.45
2022-10-03T16:09:19.689Z,83.24
2022-10-03T16:10:19.674Z,83.14
2022-10-03T16:11:19.673Z,83.18
2022-10-03T16:12:19.659Z,83.14
2022-10-03T16:13:19.638Z,83.38
2022-10-03T16:14:19.631Z,83.08
2022-10-03T16:15:19.634Z,83.38
2022-10-03T16:16:19.700Z,83.38
2022-10-03T16:17:19.594Z,83.38
2022-10-03T16:18:19.621Z,83.18
2022-10-03T16:19:19.597Z,83.38
2022-10-03T16:20:19.559Z,83.38
2022-10-03T16:21:19.550Z,83.38
2022-10-03T16:22:19.536Z,83.22
2022-10-03T16:23:19.524Z,83.22
2022-10-03T16:24:19.526Z,83.53
2022-10-03T16:25:19.542Z,83.22
2022-10-03T16:26:19.491Z,83.62
2022-10-03T16:27:19.483Z,83.53
2022-10-03T16:28:19.506Z,83.53
2022-10-03T16:29:19.458Z,83.56
2022-10-03T16:30:19.520Z,83.56
2022-10-03T16:31:19.521Z,83.76
2022-10-03T16:32:19.426Z,83.76
2022-10-03T16:33:19.465Z,83.56
2022-10-03T16:34:19.418Z,83.87
2022-10-03T16:35:19.393Z,83.87
2022-10-03T16:36:19.391Z,84.11
2022-10-03T16:37:19.381Z,84.01
2022-10-03T16:38:19.349Z,84.07
2022-10-03T16:39:19.335Z,83.60
2022-10-03T16:40:19.360Z,83.60
2022-10-03T16:41:19.319Z,83.70
2022-10-03T16:42:19.346Z,84.01
2022-10-03T16:43:19.294Z,84.01
2022-10-03T16:44:19.299Z,84.01
2022-10-03T16:45:19.277Z,84.11
2022-10-03T16:46:19.402Z,84.11
2022-10-03T16:47:19.256Z,84.11
2022-10-03T16:48:19.260Z,84.01
2022-10-03T16:49:19.237Z,84.01
2022-10-03T16:50:19.242Z,83.60
2022-10-03T16:51:19.205Z,83.29
2022-10-03T16:52:19.197Z,83.70
2022-10-03T16:53:19.184Z,83.60
2022-10-03T16:54:19.207Z,83.29
2022-10-03T16:55:19.178Z,83.40
2022-10-03T16:56:19.172Z,84.11
2022-10-03T16:57:19.137Z,84.01
2022-10-03T16:58:19.127Z,84.11
2022-10-03T16:59:19.147Z,83.81
2022-10-03T17:00:19.119Z,83.91
2022-10-03T17:01:27.897Z,83.76
2022-10-03T17:02:20.168Z,83.67
2022-10-03T17:03:19.073Z,83.81
2022-10-03T17:04:19.063Z,83.60
2022-10-03T17:05:19.042Z,83.76
2022-10-03T17:06:19.090Z,83.56
2022-10-03T17:07:19.020Z,83.87
2022-10-03T17:08:40.779Z,83.26
2022-10-03T17:09:20.035Z,83.50
2022-10-03T17:10:18.992Z,83.46
2022-10-03T17:11:19.647Z,83.40
2022-10-03T17:12:18.996Z,83.29
2022-10-03T17:13:18.955Z,83.50
2022-10-03T17:14:18.941Z,83.50
2022-10-03T17:15:18.934Z,83.40
2022-10-03T17:16:19.024Z,83.40
2022-10-03T17:17:18.913Z,83.50
2022-10-03T17:18:23.327Z,83.50
2022-10-03T17:19:19.879Z,83.60
2022-10-03T17:20:18.876Z,83.46
2022-10-03T17:21:18.861Z,83.40
2022-10-03T17:22:18.879Z,83.50
2022-10-03T17:23:18.837Z,83.56
2022-10-03T17:24:18.879Z,83.26
2022-10-03T17:25:18.817Z,83.46
2022-10-03T17:26:18.800Z,83.36
2022-10-03T17:27:18.797Z,83.36
2022-10-03T17:28:18.977Z,83.46
2022-10-03T17:29:18.769Z,83.56
2022-10-03T17:30:18.772Z,83.46
2022-10-03T17:31:18.809Z,83.26
2022-10-03T17:32:18.736Z,83.46
2022-10-03T17:33:18.825Z,83.87
2022-10-03T17:34:18.709Z,83.56
2022-10-03T17:35:18.710Z,83.67
2022-10-03T17:36:18.722Z,83.36
2022-10-03T17:37:18.747Z,83.76
2022-10-03T17:38:48.327Z,83.01
2022-10-03T17:39:19.652Z,83.67
2022-10-03T17:40:18.673Z,83.87
2022-10-03T17:41:18.706Z,82.75
2022-10-03T17:42:18.634Z,83.36
2022-10-03T17:43:18.612Z,83.56
2022-10-03T17:44:18.599Z,83.87
2022-10-03T17:45:18.602Z,83.67
2022-10-03T17:46:18.667Z,83.36
2022-10-03T17:47:18.577Z,83.36
2022-10-03T17:48:18.587Z,83.70
2022-10-03T17:49:18.558Z,83.70
2022-10-03T17:50:19.266Z,83.70
2022-10-03T17:51:18.569Z,83.36
2022-10-03T17:52:18.507Z,83.50
2022-10-03T17:53:18.497Z,83.50
2022-10-03T17:54:18.603Z,83.60
2022-10-03T17:55:18.476Z,83.56
2022-10-03T17:56:18.459Z,83.56
2022-10-03T17:57:18.452Z,83.50
2022-10-03T17:58:18.460Z,83.70
2022-10-03T17:59:18.423Z,83.26
2022-10-03T18:00:18.453Z,83.70
2022-10-03T18:01:18.442Z,83.50
2022-10-03T18:02:18.421Z,83.46
2022-10-03T18:03:18.397Z,83.29
2022-10-03T18:04:18.366Z,83.56
2022-10-03T18:05:18.362Z,83.70
2022-10-03T18:06:18.401Z,83.60
2022-10-03T18:07:18.340Z,83.60
2022-10-03T18:08:18.324Z,83.36
2022-10-03T18:09:18.337Z,83.60
2022-10-03T18:10:18.324Z,83.87
2022-10-03T18:11:20.727Z,83.70
2022-10-03T18:12:18.335Z,83.76
2022-10-03T18:13:18.265Z,82.85
2022-10-03T18:14:18.257Z,83.06
2022-10-03T18:15:18.239Z,83.26
2022-10-03T18:16:18.368Z,82.95
2022-10-03T18:17:18.271Z,83.09
2022-10-03T18:18:18.238Z,83.40
2022-10-03T18:19:18.199Z,83.06
2022-10-03T18:20:18.201Z,82.85
2022-10-03T18:21:18.206Z,82.89
2022-10-03T18:22:18.774Z,83.06
2022-10-03T18:23:36.690Z,82.99
2022-10-03T18:24:19.154Z,82.75
2022-10-03T18:25:18.128Z,83.15
2022-10-03T18:26:20.483Z,82.85
2022-10-03T18:27:18.108Z,82.85
2022-10-03T18:28:18.150Z,83.15
2022-10-03T18:29:18.082Z,83.06
2022-10-03T18:30:18.078Z,83.06
2022-10-03T18:31:18.148Z,82.95
2022-10-03T18:32:18.046Z,82.75
2022-10-03T18:33:18.040Z,82.85
2022-10-03T18:34:18.044Z,82.85
2022-10-03T18:35:18.033Z,83.06
2022-10-03T18:36:18.033Z,82.75
2022-10-03T18:37:17.994Z,82.89
2022-10-03T18:38:17.980Z,82.79
2022-10-03T18:39:17.968Z,82.75
2022-10-03T18:40:17.960Z,82.75
2022-10-03T18:41:17.941Z,82.79
2022-10-03T18:42:17.975Z,82.89
2022-10-03T18:43:17.931Z,82.79
2022-10-03T18:44:17.921Z,82.79
2022-10-03T18:45:18.000Z,82.89
2022-10-03T18:46:17.938Z,82.59